sensor_id;sensor_type;location;lat;lon;timestamp;P1;durP1;ratioP1;P2;durP2;ratioP2
41275;SDS011;27010;47.718;12.912;2023-10-19T00:01:23;1.13;;;1.03;;
41275;SDS011;27010;47.718;12.912;2023-10-19T00:04:28;2.93;;;1.03;;
41275;SDS011;27010;47.718;12.912;2023-10-19T00:07:35;1.00;;;0.90;;
41275;SDS011;27010;47.718;12.912;2023-10-19T00:10:37;3.57;;;1.20;;
41275;SDS011;27010;47.718;12.912;2023-10-19T00:13:39;1.80;;;1.20;;
41275;SDS011;27010;47.718;12.912;2023-10-19T00:16:42;4.40;;;0.80;;
41275;SDS011;27010;47.718;12.912;2023-10-19T00:20:02;1.23;;;0.80;;
41275;SDS011;27010;47.718;12.912;2023-10-19T00:23:23;1.37;;;0.90;;
41275;SDS011;27010;47.718;12.912;2023-10-19T00:26:34;0.80;;;0.80;;
41275;SDS011;27010;47.718;12.912;2023-10-19T00:29:36;1.20;;;1.10;;
41275;SDS011;27010;47.718;12.912;2023-10-19T00:32:42;1.23;;;0.80;;
41275;SDS011;27010;47.718;12.912;2023-10-19T00:35:44;2.07;;;0.97;;
41275;SDS011;27010;47.718;12.912;2023-10-19T00:38:58;1.50;;;0.80;;
41275;SDS011;27010;47.718;12.912;2023-10-19T00:42:02;1.63;;;1.53;;
41275;SDS011;27010;47.718;12.912;2023-10-19T00:45:05;2.50;;;0.93;;
41275;SDS011;27010;47.718;12.912;2023-10-19T00:48:09;0.80;;;0.70;;
41275;SDS011;27010;47.718;12.912;2023-10-19T00:51:13;1.30;;;0.90;;
41275;SDS011;27010;47.718;12.912;2023-10-19T00:54:33;0.93;;;0.83;;
41275;SDS011;27010;47.718;12.912;2023-10-19T00:57:41;1.00;;;0.90;;
41275;SDS011;27010;47.718;12.912;2023-10-19T01:00:48;2.90;;;0.97;;
41275;SDS011;27010;47.718;12.912;2023-10-19T01:03:51;1.00;;;0.90;;
41275;SDS011;27010;47.718;12.912;2023-10-19T01:06:58;2.83;;;1.00;;
41275;SDS011;27010;47.718;12.912;2023-10-19T01:10:07;1.47;;;0.80;;
41275;SDS011;27010;47.718;12.912;2023-10-19T01:13:10;1.00;;;0.90;;
41275;SDS011;27010;47.718;12.912;2023-10-19T01:16:16;1.13;;;0.83;;
41275;SDS011;27010;47.718;12.912;2023-10-19T01:19:25;1.20;;;0.97;;
41275;SDS011;27010;47.718;12.912;2023-10-19T01:22:28;1.60;;;0.80;;
41275;SDS011;27010;47.718;12.912;2023-10-19T01:25:33;0.97;;;0.80;;
41275;SDS011;27010;47.718;12.912;2023-10-19T01:28:57;1.70;;;1.07;;
41275;SDS011;27010;47.718;12.912;2023-10-19T01:32:15;2.10;;;0.90;;
41275;SDS011;27010;47.718;12.912;2023-10-19T01:35:17;3.10;;;1.30;;
41275;SDS011;27010;47.718;12.912;2023-10-19T01:38:19;2.20;;;1.00;;
41275;SDS011;27010;47.718;12.912;2023-10-19T01:41:22;0.97;;;0.93;;
41275;SDS011;27010;47.718;12.912;2023-10-19T01:44:26;1.33;;;0.90;;
41275;SDS011;27010;47.718;12.912;2023-10-19T01:47:29;1.03;;;0.70;;
41275;SDS011;27010;47.718;12.912;2023-10-19T01:50:31;0.90;;;0.70;;
41275;SDS011;27010;47.718;12.912;2023-10-19T01:53:33;0.80;;;0.80;;
41275;SDS011;27010;47.718;12.912;2023-10-19T01:56:41;1.90;;;0.90;;
41275;SDS011;27010;47.718;12.912;2023-10-19T01:59:45;1.00;;;0.93;;
41275;SDS011;27010;47.718;12.912;2023-10-19T02:02:47;1.77;;;1.00;;
41275;SDS011;27010;47.718;12.912;2023-10-19T02:05:57;1.03;;;0.70;;
41275;SDS011;27010;47.718;12.912;2023-10-19T02:09:02;1.00;;;0.90;;
41275;SDS011;27010;47.718;12.912;2023-10-19T02:12:19;1.93;;;0.93;;
41275;SDS011;27010;47.718;12.912;2023-10-19T02:15:22;0.90;;;0.80;;
41275;SDS011;27010;47.718;12.912;2023-10-19T02:18:24;0.97;;;0.73;;
41275;SDS011;27010;47.718;12.912;2023-10-19T02:21:26;1.17;;;0.90;;
41275;SDS011;27010;47.718;12.912;2023-10-19T02:24:32;3.30;;;0.93;;
41275;SDS011;27010;47.718;12.912;2023-10-19T02:27:34;2.10;;;0.77;;
41275;SDS011;27010;47.718;12.912;2023-10-19T02:30:36;0.83;;;0.70;;
41275;SDS011;27010;47.718;12.912;2023-10-19T02:33:42;1.33;;;0.90;;
41275;SDS011;27010;47.718;12.912;2023-10-19T02:36:47;1.07;;;0.90;;
41275;SDS011;27010;47.718;12.912;2023-10-19T02:39:50;1.80;;;1.00;;
41275;SDS011;27010;47.718;12.912;2023-10-19T02:42:52;2.50;;;0.90;;
41275;SDS011;27010;47.718;12.912;2023-10-19T02:45:55;2.83;;;0.80;;
41275;SDS011;27010;47.718;12.912;2023-10-19T02:49:04;2.03;;;0.70;;
41275;SDS011;27010;47.718;12.912;2023-10-19T02:52:15;1.23;;;1.13;;
41275;SDS011;27010;47.718;12.912;2023-10-19T02:55:18;1.60;;;0.90;;
41275;SDS011;27010;47.718;12.912;2023-10-19T02:58:22;0.90;;;0.70;;
41275;SDS011;27010;47.718;12.912;2023-10-19T03:01:24;3.50;;;0.63;;
41275;SDS011;27010;47.718;12.912;2023-10-19T03:04:30;1.30;;;0.80;;
41275;SDS011;27010;47.718;12.912;2023-10-19T03:07:33;1.03;;;0.73;;
41275;SDS011;27010;47.718;12.912;2023-10-19T03:10:35;0.97;;;0.53;;
41275;SDS011;27010;47.718;12.912;2023-10-19T03:13:46;1.73;;;0.80;;
41275;SDS011;27010;47.718;12.912;2023-10-19T03:16:52;1.07;;;0.70;;
41275;SDS011;27010;47.718;12.912;2023-10-19T03:19:57;2.07;;;0.87;;
41275;SDS011;27010;47.718;12.912;2023-10-19T03:22:59;0.90;;;0.70;;
41275;SDS011;27010;47.718;12.912;2023-10-19T03:26:03;0.93;;;0.80;;
41275;SDS011;27010;47.718;12.912;2023-10-19T03:29:25;0.80;;;0.80;;
41275;SDS011;27010;47.718;12.912;2023-10-19T03:32:33;2.13;;;0.90;;
41275;SDS011;27010;47.718;12.912;2023-10-19T03:35:37;2.33;;;0.67;;
41275;SDS011;27010;47.718;12.912;2023-10-19T03:38:43;1.03;;;0.77;;
41275;SDS011;27010;47.718;12.912;2023-10-19T03:41:45;1.67;;;0.70;;
41275;SDS011;27010;47.718;12.912;2023-10-19T03:44:47;1.87;;;0.67;;
41275;SDS011;27010;47.718;12.912;2023-10-19T03:47:50;1.23;;;0.80;;
41275;SDS011;27010;47.718;12.912;2023-10-19T03:50:55;2.17;;;1.97;;
41275;SDS011;27010;47.718;12.912;2023-10-19T03:53:58;2.20;;;1.60;;
41275;SDS011;27010;47.718;12.912;2023-10-19T03:57:03;4.00;;;2.70;;
41275;SDS011;27010;47.718;12.912;2023-10-19T04:00:09;3.77;;;1.47;;
41275;SDS011;27010;47.718;12.912;2023-10-19T04:03:18;1.10;;;0.80;;
41275;SDS011;27010;47.718;12.912;2023-10-19T04:06:20;2.00;;;1.80;;
41275;SDS011;27010;47.718;12.912;2023-10-19T04:09:23;1.73;;;1.23;;
41275;SDS011;27010;47.718;12.912;2023-10-19T04:12:30;1.10;;;1.00;;
41275;SDS011;27010;47.718;12.912;2023-10-19T04:15:33;1.70;;;0.87;;
41275;SDS011;27010;47.718;12.912;2023-10-19T04:18:36;1.03;;;0.90;;
41275;SDS011;27010;47.718;12.912;2023-10-19T04:21:40;1.23;;;0.90;;
41275;SDS011;27010;47.718;12.912;2023-10-19T04:24:46;1.03;;;0.70;;
41275;SDS011;27010;47.718;12.912;2023-10-19T04:27:47;2.60;;;1.10;;
41275;SDS011;27010;47.718;12.912;2023-10-19T04:30:50;3.10;;;1.33;;
41275;SDS011;27010;47.718;12.912;2023-10-19T04:33:53;1.27;;;0.73;;
41275;SDS011;27010;47.718;12.912;2023-10-19T04:36:56;1.23;;;0.80;;
41275;SDS011;27010;47.718;12.912;2023-10-19T04:39:59;1.03;;;0.63;;
41275;SDS011;27010;47.718;12.912;2023-10-19T04:43:02;0.50;;;0.50;;
41275;SDS011;27010;47.718;12.912;2023-10-19T04:46:08;1.53;;;0.80;;
41275;SDS011;27010;47.718;12.912;2023-10-19T04:49:14;1.40;;;0.90;;
41275;SDS011;27010;47.718;12.912;2023-10-19T04:52:18;1.77;;;1.00;;
41275;SDS011;27010;47.718;12.912;2023-10-19T04:55:20;1.73;;;1.23;;
41275;SDS011;27010;47.718;12.912;2023-10-19T04:58:22;1.93;;;1.03;;
41275;SDS011;27010;47.718;12.912;2023-10-19T05:01:25;1.67;;;0.80;;
41275;SDS011;27010;47.718;12.912;2023-10-19T05:04:33;1.60;;;0.70;;
41275;SDS011;27010;47.718;12.912;2023-10-19T05:07:38;1.00;;;0.93;;
41275;SDS011;27010;47.718;12.912;2023-10-19T05:10:40;2.77;;;1.07;;
41275;SDS011;27010;47.718;12.912;2023-10-19T05:13:43;2.77;;;1.90;;
41275;SDS011;27010;47.718;12.912;2023-10-19T05:16:46;1.80;;;1.20;;
41275;SDS011;27010;47.718;12.912;2023-10-19T05:19:49;0.77;;;0.70;;
41275;SDS011;27010;47.718;12.912;2023-10-19T05:22:51;1.60;;;0.73;;
41275;SDS011;27010;47.718;12.912;2023-10-19T05:25:59;5.07;;;0.90;;
41275;SDS011;27010;47.718;12.912;2023-10-19T05:29:04;1.00;;;0.80;;
41275;SDS011;27010;47.718;12.912;2023-10-19T05:32:06;4.43;;;1.07;;
41275;SDS011;27010;47.718;12.912;2023-10-19T05:35:11;1.00;;;0.80;;
41275;SDS011;27010;47.718;12.912;2023-10-19T05:38:15;1.37;;;0.60;;
41275;SDS011;27010;47.718;12.912;2023-10-19T05:41:18;3.43;;;0.90;;
41275;SDS011;27010;47.718;12.912;2023-10-19T05:44:22;3.67;;;1.23;;
41275;SDS011;27010;47.718;12.912;2023-10-19T05:47:26;1.33;;;0.80;;
41275;SDS011;27010;47.718;12.912;2023-10-19T05:50:29;2.23;;;0.90;;
41275;SDS011;27010;47.718;12.912;2023-10-19T05:53:31;1.23;;;0.80;;
41275;SDS011;27010;47.718;12.912;2023-10-19T05:56:34;1.43;;;0.77;;
41275;SDS011;27010;47.718;12.912;2023-10-19T05:59:35;2.00;;;0.73;;
41275;SDS011;27010;47.718;12.912;2023-10-19T06:02:45;1.43;;;1.10;;
41275;SDS011;27010;47.718;12.912;2023-10-19T06:05:48;1.57;;;0.70;;
41275;SDS011;27010;47.718;12.912;2023-10-19T06:08:50;1.40;;;1.00;;
41275;SDS011;27010;47.718;12.912;2023-10-19T06:11:55;1.67;;;1.00;;
41275;SDS011;27010;47.718;12.912;2023-10-19T06:14:58;2.70;;;0.90;;
41275;SDS011;27010;47.718;12.912;2023-10-19T06:18:01;1.27;;;1.00;;
41275;SDS011;27010;47.718;12.912;2023-10-19T06:21:05;1.30;;;1.00;;
41275;SDS011;27010;47.718;12.912;2023-10-19T06:24:07;1.40;;;0.60;;
41275;SDS011;27010;47.718;12.912;2023-10-19T06:27:10;1.13;;;0.80;;
41275;SDS011;27010;47.718;12.912;2023-10-19T06:30:12;1.17;;;0.70;;
41275;SDS011;27010;47.718;12.912;2023-10-19T06:33:19;2.10;;;0.80;;
41275;SDS011;27010;47.718;12.912;2023-10-19T06:36:25;2.40;;;0.70;;
41275;SDS011;27010;47.718;12.912;2023-10-19T06:39:27;1.23;;;0.90;;
41275;SDS011;27010;47.718;12.912;2023-10-19T06:42:29;1.43;;;0.60;;
41275;SDS011;27010;47.718;12.912;2023-10-19T06:45:32;1.30;;;0.70;;
41275;SDS011;27010;47.718;12.912;2023-10-19T06:48:35;0.97;;;0.80;;
41275;SDS011;27010;47.718;12.912;2023-10-19T06:51:37;2.30;;;1.07;;
41275;SDS011;27010;47.718;12.912;2023-10-19T06:54:39;2.10;;;1.00;;
41275;SDS011;27010;47.718;12.912;2023-10-19T06:57:45;1.77;;;1.03;;
41275;SDS011;27010;47.718;12.912;2023-10-19T07:00:49;1.23;;;0.83;;
41275;SDS011;27010;47.718;12.912;2023-10-19T07:03:58;2.27;;;0.80;;
41275;SDS011;27010;47.718;12.912;2023-10-19T07:07:00;1.40;;;0.90;;
41275;SDS011;27010;47.718;12.912;2023-10-19T07:10:03;1.73;;;0.87;;
41275;SDS011;27010;47.718;12.912;2023-10-19T07:13:05;3.13;;;0.80;;
41275;SDS011;27010;47.718;12.912;2023-10-19T07:16:10;2.83;;;0.70;;
41275;SDS011;27010;47.718;12.912;2023-10-19T07:19:13;2.70;;;0.70;;
41275;SDS011;27010;47.718;12.912;2023-10-19T07:22:15;0.73;;;0.73;;
41275;SDS011;27010;47.718;12.912;2023-10-19T07:25:18;1.77;;;0.90;;
41275;SDS011;27010;47.718;12.912;2023-10-19T07:28:23;1.10;;;0.87;;
41275;SDS011;27010;47.718;12.912;2023-10-19T07:31:31;1.47;;;1.13;;
41275;SDS011;27010;47.718;12.912;2023-10-19T07:34:34;4.20;;;1.55;;
41275;SDS011;27010;47.718;12.912;2023-10-19T07:37:36;5.77;;;4.13;;
41275;SDS011;27010;47.718;12.912;2023-10-19T07:40:40;4.10;;;2.90;;
41275;SDS011;27010;47.718;12.912;2023-10-19T07:43:42;3.00;;;1.93;;
41275;SDS011;27010;47.718;12.912;2023-10-19T07:46:46;2.07;;;1.37;;
41275;SDS011;27010;47.718;12.912;2023-10-19T07:49:48;1.50;;;1.40;;
41275;SDS011;27010;47.718;12.912;2023-10-19T07:52:53;2.90;;;1.40;;
41275;SDS011;27010;47.718;12.912;2023-10-19T07:55:56;1.83;;;1.27;;
41275;SDS011;27010;47.718;12.912;2023-10-19T07:58:59;2.37;;;1.40;;
41275;SDS011;27010;47.718;12.912;2023-10-19T08:02:01;2.73;;;1.17;;
41275;SDS011;27010;47.718;12.912;2023-10-19T08:05:08;3.90;;;1.80;;
41275;SDS011;27010;47.718;12.912;2023-10-19T08:08:10;6.30;;;1.47;;
41275;SDS011;27010;47.718;12.912;2023-10-19T08:11:14;3.73;;;1.33;;
41275;SDS011;27010;47.718;12.912;2023-10-19T08:14:16;2.00;;;1.37;;
41275;SDS011;27010;47.718;12.912;2023-10-19T08:17:19;2.40;;;1.50;;
41275;SDS011;27010;47.718;12.912;2023-10-19T08:20:22;2.93;;;2.13;;
41275;SDS011;27010;47.718;12.912;2023-10-19T08:23:33;4.97;;;1.60;;
41275;SDS011;27010;47.718;12.912;2023-10-19T08:26:35;2.43;;;2.23;;
41275;SDS011;27010;47.718;12.912;2023-10-19T08:29:37;4.50;;;4.10;;
41275;SDS011;27010;47.718;12.912;2023-10-19T08:32:40;5.17;;;4.67;;
41275;SDS011;27010;47.718;12.912;2023-10-19T08:35:43;3.03;;;2.13;;
41275;SDS011;27010;47.718;12.912;2023-10-19T08:38:46;2.40;;;1.10;;
41275;SDS011;27010;47.718;12.912;2023-10-19T08:41:49;1.47;;;1.13;;
41275;SDS011;27010;47.718;12.912;2023-10-19T08:44:54;1.93;;;0.97;;
41275;SDS011;27010;47.718;12.912;2023-10-19T08:47:58;2.03;;;1.40;;
41275;SDS011;27010;47.718;12.912;2023-10-19T08:51:03;6.73;;;1.00;;
41275;SDS011;27010;47.718;12.912;2023-10-19T08:54:12;3.53;;;1.30;;
41275;SDS011;27010;47.718;12.912;2023-10-19T08:57:15;2.30;;;1.48;;
41275;SDS011;27010;47.718;12.912;2023-10-19T09:00:18;4.43;;;1.98;;
41275;SDS011;27010;47.718;12.912;2023-10-19T09:03:20;9.90;;;2.55;;
41275;SDS011;27010;47.718;12.912;2023-10-19T09:06:24;6.13;;;1.63;;
41275;SDS011;27010;47.718;12.912;2023-10-19T09:09:27;3.35;;;1.55;;
41275;SDS011;27010;47.718;12.912;2023-10-19T09:12:34;3.88;;;1.83;;
41275;SDS011;27010;47.718;12.912;2023-10-19T09:15:36;2.95;;;1.80;;
41275;SDS011;27010;47.718;12.912;2023-10-19T09:18:40;2.50;;;1.55;;
41275;SDS011;27010;47.718;12.912;2023-10-19T09:21:42;1.80;;;1.33;;
41275;SDS011;27010;47.718;12.912;2023-10-19T09:24:45;3.80;;;1.60;;
41275;SDS011;27010;47.718;12.912;2023-10-19T09:27:47;3.58;;;1.80;;
41275;SDS011;27010;47.718;12.912;2023-10-19T09:30:50;3.58;;;1.60;;
41275;SDS011;27010;47.718;12.912;2023-10-19T09:33:53;3.22;;;1.38;;
41275;SDS011;27010;47.718;12.912;2023-10-19T09:36:59;4.68;;;1.45;;
41275;SDS011;27010;47.718;12.912;2023-10-19T09:40:05;3.20;;;1.80;;
41275;SDS011;27010;47.718;12.912;2023-10-19T09:43:48;2.28;;;1.27;;
41275;SDS011;27010;47.718;12.912;2023-10-19T09:46:46;4.85;;;1.15;;
41275;SDS011;27010;47.718;12.912;2023-10-19T09:49:49;1.77;;;1.40;;
41275;SDS011;27010;47.718;12.912;2023-10-19T09:52:51;3.28;;;1.50;;
41275;SDS011;27010;47.718;12.912;2023-10-19T09:55:54;2.55;;;1.20;;
41275;SDS011;27010;47.718;12.912;2023-10-19T09:59:02;2.22;;;1.45;;
41275;SDS011;27010;47.718;12.912;2023-10-19T10:02:14;4.75;;;1.20;;
41275;SDS011;27010;47.718;12.912;2023-10-19T10:08:40;4.07;;;1.85;;
41275;SDS011;27010;47.718;12.912;2023-10-19T10:11:43;6.68;;;1.50;;
41275;SDS011;27010;47.718;12.912;2023-10-19T10:15:03;2.13;;;1.40;;
41275;SDS011;27010;47.718;12.912;2023-10-19T10:18:13;1.75;;;1.17;;
41275;SDS011;27010;47.718;12.912;2023-10-19T10:21:18;3.78;;;1.70;;
41275;SDS011;27010;47.718;12.912;2023-10-19T10:24:25;2.85;;;1.40;;
41275;SDS011;27010;47.718;12.912;2023-10-19T10:27:27;1.88;;;1.52;;
41275;SDS011;27010;47.718;12.912;2023-10-19T10:30:31;3.35;;;1.50;;
41275;SDS011;27010;47.718;12.912;2023-10-19T10:36:58;1.77;;;1.60;;
41275;SDS011;27010;47.718;12.912;2023-10-19T10:40:09;5.75;;;1.50;;
41275;SDS011;27010;47.718;12.912;2023-10-19T10:43:13;4.35;;;1.50;;
41275;SDS011;27010;47.718;12.912;2023-10-19T10:46:17;2.88;;;1.45;;
41275;SDS011;27010;47.718;12.912;2023-10-19T10:49:19;2.60;;;2.03;;
41275;SDS011;27010;47.718;12.912;2023-10-19T10:52:27;4.38;;;2.13;;
41275;SDS011;27010;47.718;12.912;2023-10-19T10:55:34;1.92;;;1.42;;
41275;SDS011;27010;47.718;12.912;2023-10-19T10:58:36;5.28;;;1.60;;
41275;SDS011;27010;47.718;12.912;2023-10-19T11:01:38;6.32;;;1.73;;
41275;SDS011;27010;47.718;12.912;2023-10-19T11:04:45;2.35;;;1.65;;
41275;SDS011;27010;47.718;12.912;2023-10-19T11:11:15;6.78;;;1.48;;
41275;SDS011;27010;47.718;12.912;2023-10-19T11:14:17;3.95;;;1.50;;
41275;SDS011;27010;47.718;12.912;2023-10-19T11:17:20;3.42;;;1.10;;
41275;SDS011;27010;47.718;12.912;2023-10-19T11:20:30;4.85;;;1.20;;
41275;SDS011;27010;47.718;12.912;2023-10-19T11:23:43;3.33;;;1.33;;
41275;SDS011;27010;47.718;12.912;2023-10-19T11:26:47;2.90;;;1.23;;
41275;SDS011;27010;47.718;12.912;2023-10-19T11:32:59;2.60;;;1.52;;
41275;SDS011;27010;47.718;12.912;2023-10-19T11:36:04;3.78;;;1.42;;
41275;SDS011;27010;47.718;12.912;2023-10-19T11:39:07;2.88;;;1.02;;
41275;SDS011;27010;47.718;12.912;2023-10-19T11:42:13;2.10;;;1.13;;
41275;SDS011;27010;47.718;12.912;2023-10-19T11:45:16;2.65;;;0.90;;
41275;SDS011;27010;47.718;12.912;2023-10-19T11:48:18;3.15;;;1.08;;
41275;SDS011;27010;47.718;12.912;2023-10-19T11:51:21;2.33;;;1.30;;
41275;SDS011;27010;47.718;12.912;2023-10-19T11:54:24;2.60;;;1.42;;
41275;SDS011;27010;47.718;12.912;2023-10-19T11:57:28;2.38;;;1.30;;
41275;SDS011;27010;47.718;12.912;2023-10-19T12:00:39;5.45;;;1.40;;
41275;SDS011;27010;47.718;12.912;2023-10-19T12:04:02;2.67;;;1.50;;
41275;SDS011;27010;47.718;12.912;2023-10-19T12:07:04;2.97;;;1.65;;
41275;SDS011;27010;47.718;12.912;2023-10-19T12:10:08;3.17;;;2.63;;
41275;SDS011;27010;47.718;12.912;2023-10-19T12:13:12;5.50;;;1.63;;
41275;SDS011;27010;47.718;12.912;2023-10-19T12:16:15;4.90;;;1.40;;
41275;SDS011;27010;47.718;12.912;2023-10-19T12:19:18;6.72;;;3.13;;
41275;SDS011;27010;47.718;12.912;2023-10-19T12:22:20;2.45;;;1.67;;
41275;SDS011;27010;47.718;12.912;2023-10-19T12:25:23;4.43;;;1.55;;
41275;SDS011;27010;47.718;12.912;2023-10-19T12:28:40;4.43;;;1.50;;
41275;SDS011;27010;47.718;12.912;2023-10-19T12:31:43;3.83;;;1.50;;
41275;SDS011;27010;47.718;12.912;2023-10-19T12:38:23;5.18;;;1.90;;
41275;SDS011;27010;47.718;12.912;2023-10-19T12:41:25;3.03;;;1.65;;
41275;SDS011;27010;47.718;12.912;2023-10-19T12:44:28;3.83;;;1.40;;
41275;SDS011;27010;47.718;12.912;2023-10-19T12:47:32;3.67;;;1.50;;
41275;SDS011;27010;47.718;12.912;2023-10-19T12:50:35;1.83;;;1.05;;
41275;SDS011;27010;47.718;12.912;2023-10-19T12:53:38;2.63;;;0.88;;
41275;SDS011;27010;47.718;12.912;2023-10-19T12:56:40;4.90;;;1.58;;
41275;SDS011;27010;47.718;12.912;2023-10-19T12:59:42;2.13;;;0.82;;
41275;SDS011;27010;47.718;12.912;2023-10-19T13:02:45;3.72;;;1.05;;
41275;SDS011;27010;47.718;12.912;2023-10-19T13:05:48;3.50;;;1.23;;
41275;SDS011;27010;47.718;12.912;2023-10-19T13:08:51;2.78;;;1.25;;
41275;SDS011;27010;47.718;12.912;2023-10-19T13:11:53;2.10;;;0.90;;
41275;SDS011;27010;47.718;12.912;2023-10-19T13:14:55;2.45;;;1.05;;
41275;SDS011;27010;47.718;12.912;2023-10-19T13:17:58;1.88;;;0.80;;
41275;SDS011;27010;47.718;12.912;2023-10-19T13:21:01;4.18;;;1.13;;
41275;SDS011;27010;47.718;12.912;2023-10-19T13:24:06;1.23;;;0.95;;
41275;SDS011;27010;47.718;12.912;2023-10-19T13:27:10;3.28;;;1.23;;
41275;SDS011;27010;47.718;12.912;2023-10-19T13:30:12;2.90;;;1.30;;
41275;SDS011;27010;47.718;12.912;2023-10-19T13:33:16;4.75;;;1.45;;
41275;SDS011;27010;47.718;12.912;2023-10-19T13:36:20;4.72;;;1.40;;
41275;SDS011;27010;47.718;12.912;2023-10-19T13:39:22;3.20;;;1.20;;
41275;SDS011;27010;47.718;12.912;2023-10-19T13:42:26;2.95;;;1.95;;
41275;SDS011;27010;47.718;12.912;2023-10-19T13:45:29;2.88;;;1.38;;
41275;SDS011;27010;47.718;12.912;2023-10-19T13:48:33;3.35;;;1.30;;
41275;SDS011;27010;47.718;12.912;2023-10-19T13:51:35;5.30;;;1.42;;
41275;SDS011;27010;47.718;12.912;2023-10-19T13:54:52;5.50;;;1.20;;
41275;SDS011;27010;47.718;12.912;2023-10-19T13:57:54;4.20;;;1.65;;
41275;SDS011;27010;47.718;12.912;2023-10-19T14:00:57;3.88;;;1.67;;
41275;SDS011;27010;47.718;12.912;2023-10-19T14:03:59;4.60;;;2.15;;
41275;SDS011;27010;47.718;12.912;2023-10-19T14:07:01;3.88;;;1.73;;
41275;SDS011;27010;47.718;12.912;2023-10-19T14:10:04;2.05;;;1.60;;
41275;SDS011;27010;47.718;12.912;2023-10-19T14:13:08;3.78;;;1.75;;
41275;SDS011;27010;47.718;12.912;2023-10-19T14:16:11;4.68;;;2.63;;
41275;SDS011;27010;47.718;12.912;2023-10-19T14:19:13;6.28;;;3.47;;
41275;SDS011;27010;47.718;12.912;2023-10-19T14:22:16;7.97;;;4.15;;
41275;SDS011;27010;47.718;12.912;2023-10-19T14:25:20;5.00;;;2.92;;
41275;SDS011;27010;47.718;12.912;2023-10-19T14:28:24;4.50;;;1.58;;
41275;SDS011;27010;47.718;12.912;2023-10-19T14:31:26;5.22;;;1.50;;
41275;SDS011;27010;47.718;12.912;2023-10-19T14:34:28;5.10;;;1.63;;
41275;SDS011;27010;47.718;12.912;2023-10-19T14:37:31;2.63;;;1.50;;
41275;SDS011;27010;47.718;12.912;2023-10-19T14:40:33;3.45;;;1.35;;
41275;SDS011;27010;47.718;12.912;2023-10-19T14:43:35;4.22;;;1.50;;
41275;SDS011;27010;47.718;12.912;2023-10-19T14:46:39;2.63;;;1.30;;
41275;SDS011;27010;47.718;12.912;2023-10-19T14:49:41;1.42;;;1.15;;
41275;SDS011;27010;47.718;12.912;2023-10-19T14:52:44;3.95;;;1.52;;
41275;SDS011;27010;47.718;12.912;2023-10-19T14:55:48;3.13;;;1.48;;
41275;SDS011;27010;47.718;12.912;2023-10-19T14:58:51;4.28;;;1.60;;
41275;SDS011;27010;47.718;12.912;2023-10-19T15:01:56;4.15;;;1.70;;
41275;SDS011;27010;47.718;12.912;2023-10-19T15:04:58;2.70;;;1.60;;
41275;SDS011;27010;47.718;12.912;2023-10-19T15:08:00;5.00;;;2.37;;
41275;SDS011;27010;47.718;12.912;2023-10-19T15:11:03;5.97;;;1.57;;
41275;SDS011;27010;47.718;12.912;2023-10-19T15:14:05;2.70;;;1.58;;
41275;SDS011;27010;47.718;12.912;2023-10-19T15:17:07;3.03;;;1.63;;
41275;SDS011;27010;47.718;12.912;2023-10-19T15:20:10;3.42;;;1.38;;
41275;SDS011;27010;47.718;12.912;2023-10-19T15:23:16;2.43;;;1.20;;
41275;SDS011;27010;47.718;12.912;2023-10-19T15:26:18;5.57;;;1.63;;
41275;SDS011;27010;47.718;12.912;2023-10-19T15:29:20;5.47;;;2.03;;
41275;SDS011;27010;47.718;12.912;2023-10-19T15:32:23;2.67;;;1.83;;
41275;SDS011;27010;47.718;12.912;2023-10-19T15:35:27;3.20;;;1.63;;
41275;SDS011;27010;47.718;12.912;2023-10-19T15:38:29;2.37;;;1.50;;
41275;SDS011;27010;47.718;12.912;2023-10-19T15:41:31;4.00;;;1.77;;
41275;SDS011;27010;47.718;12.912;2023-10-19T15:44:34;3.17;;;1.87;;
41275;SDS011;27010;47.718;12.912;2023-10-19T15:47:37;2.83;;;1.60;;
41275;SDS011;27010;47.718;12.912;2023-10-19T15:50:42;2.40;;;1.67;;
41275;SDS011;27010;47.718;12.912;2023-10-19T15:53:45;6.50;;;1.83;;
41275;SDS011;27010;47.718;12.912;2023-10-19T15:56:46;6.13;;;1.80;;
41275;SDS011;27010;47.718;12.912;2023-10-19T15:59:49;3.63;;;1.93;;
41275;SDS011;27010;47.718;12.912;2023-10-19T16:02:51;4.10;;;3.40;;
41275;SDS011;27010;47.718;12.912;2023-10-19T16:05:54;4.97;;;3.03;;
41275;SDS011;27010;47.718;12.912;2023-10-19T16:08:56;5.87;;;2.80;;
41275;SDS011;27010;47.718;12.912;2023-10-19T16:11:58;6.10;;;4.07;;
41275;SDS011;27010;47.718;12.912;2023-10-19T16:15:00;8.10;;;4.97;;
41275;SDS011;27010;47.718;12.912;2023-10-19T16:18:02;5.20;;;4.13;;
41275;SDS011;27010;47.718;12.912;2023-10-19T16:21:05;5.67;;;3.93;;
41275;SDS011;27010;47.718;12.912;2023-10-19T16:24:09;4.53;;;3.63;;
41275;SDS011;27010;47.718;12.912;2023-10-19T16:27:11;5.97;;;3.37;;
41275;SDS011;27010;47.718;12.912;2023-10-19T16:30:13;7.37;;;3.80;;
41275;SDS011;27010;47.718;12.912;2023-10-19T16:33:18;8.17;;;3.43;;
41275;SDS011;27010;47.718;12.912;2023-10-19T16:36:21;8.67;;;3.83;;
41275;SDS011;27010;47.718;12.912;2023-10-19T16:39:23;10.00;;;5.73;;
41275;SDS011;27010;47.718;12.912;2023-10-19T16:42:25;8.33;;;4.93;;
41275;SDS011;27010;47.718;12.912;2023-10-19T16:45:28;9.93;;;4.73;;
41275;SDS011;27010;47.718;12.912;2023-10-19T16:48:31;6.97;;;3.53;;
41275;SDS011;27010;47.718;12.912;2023-10-19T16:51:33;6.50;;;3.07;;
41275;SDS011;27010;47.718;12.912;2023-10-19T16:54:37;5.70;;;2.97;;
41275;SDS011;27010;47.718;12.912;2023-10-19T16:57:40;5.20;;;2.73;;
41275;SDS011;27010;47.718;12.912;2023-10-19T17:00:42;3.67;;;2.63;;
41275;SDS011;27010;47.718;12.912;2023-10-19T17:03:45;4.63;;;2.73;;
41275;SDS011;27010;47.718;12.912;2023-10-19T17:06:47;3.50;;;2.70;;
41275;SDS011;27010;47.718;12.912;2023-10-19T17:09:49;6.33;;;3.00;;
41275;SDS011;27010;47.718;12.912;2023-10-19T17:12:52;10.67;;;2.97;;
41275;SDS011;27010;47.718;12.912;2023-10-19T17:15:54;5.20;;;2.70;;
41275;SDS011;27010;47.718;12.912;2023-10-19T17:18:57;3.83;;;2.80;;
41275;SDS011;27010;47.718;12.912;2023-10-19T17:21:59;3.80;;;3.13;;
41275;SDS011;27010;47.718;12.912;2023-10-19T17:25:01;6.10;;;3.60;;
41275;SDS011;27010;47.718;12.912;2023-10-19T17:28:03;5.93;;;3.47;;
41275;SDS011;27010;47.718;12.912;2023-10-19T17:31:05;3.90;;;3.23;;
41275;SDS011;27010;47.718;12.912;2023-10-19T17:34:07;5.60;;;3.67;;
41275;SDS011;27010;47.718;12.912;2023-10-19T17:37:09;3.90;;;3.50;;
41275;SDS011;27010;47.718;12.912;2023-10-19T17:40:12;5.63;;;3.47;;
41275;SDS011;27010;47.718;12.912;2023-10-19T17:43:13;6.93;;;3.23;;
41275;SDS011;27010;47.718;12.912;2023-10-19T17:46:16;5.30;;;4.67;;
41275;SDS011;27010;47.718;12.912;2023-10-19T17:49:18;8.90;;;4.40;;
41275;SDS011;27010;47.718;12.912;2023-10-19T17:52:21;7.77;;;3.97;;
41275;SDS011;27010;47.718;12.912;2023-10-19T17:55:24;5.03;;;4.53;;
41275;SDS011;27010;47.718;12.912;2023-10-19T17:58:27;4.20;;;3.80;;
41275;SDS011;27010;47.718;12.912;2023-10-19T18:01:29;5.07;;;3.90;;
41275;SDS011;27010;47.718;12.912;2023-10-19T18:04:31;5.93;;;4.50;;
41275;SDS011;27010;47.718;12.912;2023-10-19T18:07:33;8.67;;;5.53;;
41275;SDS011;27010;47.718;12.912;2023-10-19T18:10:35;6.50;;;5.00;;
41275;SDS011;27010;47.718;12.912;2023-10-19T18:13:38;5.33;;;4.10;;
41275;SDS011;27010;47.718;12.912;2023-10-19T18:16:40;7.03;;;5.03;;
41275;SDS011;27010;47.718;12.912;2023-10-19T18:19:42;5.60;;;4.07;;
41275;SDS011;27010;47.718;12.912;2023-10-19T18:22:44;5.20;;;4.53;;
41275;SDS011;27010;47.718;12.912;2023-10-19T18:25:47;5.20;;;4.20;;
41275;SDS011;27010;47.718;12.912;2023-10-19T18:28:49;5.17;;;3.97;;